sensor_id;sensor_type;location;lat;lon;timestamp;pressure;altitude;pressure_sealevel;temperature;humidity
37066;BME280;22981;43.080;25.550;2024-03-02T00:00:09;99161.96;;;8.28;73.37
37066;BME280;22981;43.080;25.550;2024-03-02T00:02:44;99162.42;;;8.18;73.56
37066;BME280;22981;43.080;25.550;2024-03-02T00:05:14;99153.39;;;8.13;73.77
37066;BME280;22981;43.080;25.550;2024-03-02T00:07:43;99155.47;;;8.11;73.88
37066;BME280;22981;43.080;25.550;2024-03-02T00:10:16;99154.14;;;8.11;73.89
37066;BME280;22981;43.080;25.550;2024-03-02T00:12:41;99163.25;;;8.12;73.87
37066;BME280;22981;43.080;25.550;2024-03-02T00:15:41;99165.32;;;8.10;73.79
37066;BME280;22981;43.080;25.550;2024-03-02T00:18:11;99165.44;;;8.06;73.89
37066;BME280;22981;43.080;25.550;2024-03-02T00:20:40;99160.00;;;8.03;73.92
37066;BME280;22981;43.080;25.550;2024-03-02T00:23:09;99155.37;;;8.08;73.93
37066;BME280;22981;43.080;25.550;2024-03-02T00:25:48;99153.10;;;8.12;73.87
37066;BME280;22981;43.080;25.550;2024-03-02T00:28:33;99151.55;;;8.13;73.85
37066;BME280;22981;43.080;25.550;2024-03-02T00:31:14;99155.95;;;8.17;73.86
37066;BME280;22981;43.080;25.550;2024-03-02T00:33:44;99156.87;;;8.20;73.75
37066;BME280;22981;43.080;25.550;2024-03-02T00:36:14;99153.98;;;8.21;73.70
37066;BME280;22981;43.080;25.550;2024-03-02T00:38:49;99140.45;;;8.23;73.73
37066;BME280;22981;43.080;25.550;2024-03-02T00:41:27;99138.59;;;8.23;73.79
37066;BME280;22981;43.080;25.550;2024-03-02T00:44:03;99141.78;;;8.23;73.87
37066;BME280;22981;43.080;25.550;2024-03-02T00:46:42;99139.63;;;8.22;73.96
37066;BME280;22981;43.080;25.550;2024-03-02T00:49:23;99146.30;;;8.22;74.02
37066;BME280;22981;43.080;25.550;2024-03-02T00:51:53;99139.55;;;8.13;73.99
37066;BME280;22981;43.080;25.550;2024-03-02T00:54:23;99138.03;;;8.08;74.17
37066;BME280;22981;43.080;25.550;2024-03-02T00:56:56;99141.22;;;8.08;74.23
37066;BME280;22981;43.080;25.550;2024-03-02T00:59:22;99145.44;;;8.06;74.31
37066;BME280;22981;43.080;25.550;2024-03-02T01:01:50;99138.55;;;8.08;74.34
37066;BME280;22981;43.080;25.550;2024-03-02T01:04:18;99137.00;;;8.09;74.36
37066;BME280;22981;43.080;25.550;2024-03-02T01:06:45;99133.63;;;8.11;74.32
37066;BME280;22981;43.080;25.550;2024-03-02T01:09:14;99131.55;;;8.13;74.24
37066;BME280;22981;43.080;25.550;2024-03-02T01:11:43;99124.06;;;8.13;74.24
37066;BME280;22981;43.080;25.550;2024-03-02T01:14:10;99127.25;;;8.12;74.31
37066;BME280;22981;43.080;25.550;2024-03-02T01:16:38;99128.81;;;8.11;74.34
37066;BME280;22981;43.080;25.550;2024-03-02T01:19:06;99118.14;;;8.11;74.39
37066;BME280;22981;43.080;25.550;2024-03-02T01:21:33;99123.25;;;8.12;74.40
37066;BME280;22981;43.080;25.550;2024-03-02T01:24:01;99124.06;;;8.13;74.37
37066;BME280;22981;43.080;25.550;2024-03-02T01:26:28;99117.33;;;8.10;74.42
37066;BME280;22981;43.080;25.550;2024-03-02T01:28:57;99113.23;;;8.08;74.46
37066;BME280;22981;43.080;25.550;2024-03-02T01:31:24;99110.97;;;8.04;74.51
37066;BME280;22981;43.080;25.550;2024-03-02T01:33:52;99105.17;;;7.98;74.61
37066;BME280;22981;43.080;25.550;2024-03-02T01:36:19;99106.91;;;7.95;74.70
37066;BME280;22981;43.080;25.550;2024-03-02T01:38:47;99103.77;;;7.89;74.85
37066;BME280;22981;43.080;25.550;2024-03-02T01:41:15;99105.11;;;7.89;74.98
37066;BME280;22981;43.080;25.550;2024-03-02T01:43:42;99106.84;;;7.93;74.96
37066;BME280;22981;43.080;25.550;2024-03-02T01:46:10;99100.77;;;7.95;74.87
37066;BME280;22981;43.080;25.550;2024-03-02T01:48:37;99109.98;;;7.99;74.82
37066;BME280;22981;43.080;25.550;2024-03-02T01:51:05;99102.61;;;8.01;74.80
37066;BME280;22981;43.080;25.550;2024-03-02T01:53:34;99108.31;;;8.04;74.70
37066;BME280;22981;43.080;25.550;2024-03-02T01:56:02;99106.48;;;8.05;74.64
37066;BME280;22981;43.080;25.550;2024-03-02T01:58:30;99114.27;;;8.07;74.62
37066;BME280;22981;43.080;25.550;2024-03-02T02:00:58;99102.27;;;8.07;74.64
37066;BME280;22981;43.080;25.550;2024-03-02T02:03:26;99110.04;;;8.08;74.67
37066;BME280;22981;43.080;25.550;2024-03-02T02:05:53;99101.52;;;8.09;74.65
37066;BME280;22981;43.080;25.550;2024-03-02T02:08:21;99103.89;;;8.08;74.61
37066;BME280;22981;43.080;25.550;2024-03-02T02:10:48;99099.84;;;7.98;74.75
37066;BME280;22981;43.080;25.550;2024-03-02T02:13:16;99087.73;;;7.96;74.86
37066;BME280;22981;43.080;25.550;2024-03-02T02:15:43;99090.62;;;7.94;74.92
37066;BME280;22981;43.080;25.550;2024-03-02T02:18:11;99092.25;;;7.95;74.98
37066;BME280;22981;43.080;25.550;2024-03-02T02:20:39;99092.25;;;7.95;74.94
37066;BME280;22981;43.080;25.550;2024-03-02T02:23:06;99094.22;;;7.91;75.04
37066;BME280;22981;43.080;25.550;2024-03-02T02:25:36;99097.92;;;7.90;75.11
37066;BME280;22981;43.080;25.550;2024-03-02T02:28:03;99098.97;;;7.89;75.19
37066;BME280;22981;43.080;25.550;2024-03-02T02:30:32;99090.52;;;7.92;75.17
37066;BME280;22981;43.080;25.550;2024-03-02T02:33:00;99095.14;;;7.94;75.16
37066;BME280;22981;43.080;25.550;2024-03-02T02:35:27;99098.62;;;7.94;75.09
37066;BME280;22981;43.080;25.550;2024-03-02T02:37:56;99096.48;;;7.94;75.10
37066;BME280;22981;43.080;25.550;2024-03-02T02:40:25;99095.36;;;7.92;75.12
37066;BME280;22981;43.080;25.550;2024-03-02T02:42:52;99092.38;;;7.91;75.16
37066;BME280;22981;43.080;25.550;2024-03-02T02:45:20;99095.26;;;7.90;75.20
37066;BME280;22981;43.080;25.550;2024-03-02T02:47:47;99095.48;;;7.88;75.28
37066;BME280;22981;43.080;25.550;2024-03-02T02:50:15;99095.48;;;7.88;75.35
37066;BME280;22981;43.080;25.550;2024-03-02T02:52:43;99098.56;;;7.85;75.41
37066;BME280;22981;43.080;25.550;2024-03-02T02:55:12;99098.45;;;7.83;75.50
37066;BME280;22981;43.080;25.550;2024-03-02T02:57:40;99091.67;;;7.87;75.51
37066;BME280;22981;43.080;25.550;2024-03-02T03:00:10;99081.83;;;7.87;75.48
37066;BME280;22981;43.080;25.550;2024-03-02T03:02:41;99082.64;;;7.88;75.46
37066;BME280;22981;43.080;25.550;2024-03-02T03:05:13;99088.59;;;7.90;75.47
37066;BME280;22981;43.080;25.550;2024-03-02T03:07:41;99090.23;;;7.91;75.45
37066;BME280;22981;43.080;25.550;2024-03-02T03:10:10;99087.28;;;7.83;75.44
37066;BME280;22981;43.080;25.550;2024-03-02T03:12:38;99088.35;;;7.75;75.65
37066;BME280;22981;43.080;25.550;2024-03-02T03:15:08;99090.32;;;7.71;75.87
37066;BME280;22981;43.080;25.550;2024-03-02T03:17:36;99095.72;;;7.73;75.96
37066;BME280;22981;43.080;25.550;2024-03-02T03:20:04;99088.95;;;7.77;75.93
37066;BME280;22981;43.080;25.550;2024-03-02T03:22:32;99086.39;;;7.80;75.91
37066;BME280;22981;43.080;25.550;2024-03-02T03:25:01;99079.33;;;7.76;75.91
37066;BME280;22981;43.080;25.550;2024-03-02T03:27:29;99089.53;;;7.86;75.95
37066;BME280;22981;43.080;25.550;2024-03-02T03:29:57;99085.94;;;7.90;75.94
37066;BME280;22981;43.080;25.550;2024-03-02T03:32:25;99090.33;;;7.93;75.96
37066;BME280;22981;43.080;25.550;2024-03-02T03:34:52;99095.95;;;7.94;75.92
37066;BME280;22981;43.080;25.550;2024-03-02T03:37:20;99091.97;;;7.88;75.95
37066;BME280;22981;43.080;25.550;2024-03-02T03:39:47;99091.28;;;7.83;76.11
37066;BME280;22981;43.080;25.550;2024-03-02T03:42:15;99091.90;;;7.85;76.14
37066;BME280;22981;43.080;25.550;2024-03-02T03:44:42;99098.34;;;7.87;76.07
37066;BME280;22981;43.080;25.550;2024-03-02T03:47:10;99094.27;;;7.84;76.04
37066;BME280;22981;43.080;25.550;2024-03-02T03:49:37;99103.48;;;7.82;76.00
37066;BME280;22981;43.080;25.550;2024-03-02T03:52:05;99098.31;;;7.71;76.11
37066;BME280;22981;43.080;25.550;2024-03-02T03:54:32;99100.05;;;7.68;76.32
37066;BME280;22981;43.080;25.550;2024-03-02T03:57:00;99094.73;;;7.68;76.36
37066;BME280;22981;43.080;25.550;2024-03-02T03:59:27;99092.88;;;7.68;76.38
37066;BME280;22981;43.080;25.550;2024-03-02T04:01:55;99097.09;;;7.67;76.42
37066;BME280;22981;43.080;25.550;2024-03-02T04:04:23;99100.35;;;7.69;76.42
37066;BME280;22981;43.080;25.550;2024-03-02T04:06:50;99097.39;;;7.68;76.44
37066;BME280;22981;43.080;25.550;2024-03-02T04:09:18;99099.02;;;7.69;76.44
37066;BME280;22981;43.080;25.550;2024-03-02T04:11:45;99093.17;;;7.69;76.48
37066;BME280;22981;43.080;25.550;2024-03-02T04:14:13;99093.28;;;7.72;76.47
37066;BME280;22981;43.080;25.550;2024-03-02T04:16:41;99094.09;;;7.72;76.48
37066;BME280;22981;43.080;25.550;2024-03-02T04:19:08;99101.05;;;7.73;76.48
37066;BME280;22981;43.080;25.550;2024-03-02T04:21:36;99104.23;;;7.73;76.52
37066;BME280;22981;43.080;25.550;2024-03-02T04:24:03;99097.17;;;7.69;76.68
37066;BME280;22981;43.080;25.550;2024-03-02T04:26:31;99095.44;;;7.66;76.69
37066;BME280;22981;43.080;25.550;2024-03-02T04:28:58;99095.77;;;7.60;76.82
37066;BME280;22981;43.080;25.550;2024-03-02T04:31:26;99094.33;;;7.58;76.96
37066;BME280;22981;43.080;25.550;2024-03-02T04:33:53;99105.50;;;7.64;76.95
37066;BME280;22981;43.080;25.550;2024-03-02T04:36:21;99101.28;;;7.65;76.83
37066;BME280;22981;43.080;25.550;2024-03-02T04:38:50;99104.36;;;7.62;76.81
37066;BME280;22981;43.080;25.550;2024-03-02T04:41:17;99103.65;;;7.58;76.92
37066;BME280;22981;43.080;25.550;2024-03-02T04:43:45;99102.31;;;7.58;76.97
37066;BME280;22981;43.080;25.550;2024-03-02T04:46:12;99108.49;;;7.58;76.97
37066;BME280;22981;43.080;25.550;2024-03-02T04:48:40;99107.23;;;7.61;76.90
37066;BME280;22981;43.080;25.550;2024-03-02T04:51:08;99103.87;;;7.63;76.87
37066;BME280;22981;43.080;25.550;2024-03-02T04:53:35;99103.35;;;7.63;76.85
37066;BME280;22981;43.080;25.550;2024-03-02T04:56:03;99107.34;;;7.63;76.88
37066;BME280;22981;43.080;25.550;2024-03-02T04:58:48;99110.83;;;7.64;76.87
37066;BME280;22981;43.080;25.550;2024-03-02T05:01:16;99110.72;;;7.61;76.84
37066;BME280;22981;43.080;25.550;2024-03-02T05:03:43;99107.97;;;7.59;77.01
37066;BME280;22981;43.080;25.550;2024-03-02T05:06:11;99112.67;;;7.57;77.10
37066;BME280;22981;43.080;25.550;2024-03-02T05:08:39;99115.64;;;7.58;77.12
37066;BME280;22981;43.080;25.550;2024-03-02T05:11:06;99108.79;;;7.59;77.06
37066;BME280;22981;43.080;25.550;2024-03-02T05:13:48;99111.64;;;7.58;77.01
37066;BME280;22981;43.080;25.550;2024-03-02T05:16:15;99108.27;;;7.53;77.07
37066;BME280;22981;43.080;25.550;2024-03-02T05:18:43;99107.16;;;7.51;77.18
37066;BME280;22981;43.080;25.550;2024-03-02T05:21:10;99112.59;;;7.47;77.32
37066;BME280;22981;43.080;25.550;2024-03-02T05:23:38;99121.81;;;7.51;77.37
37066;BME280;22981;43.080;25.550;2024-03-02T05:26:06;99116.48;;;7.58;77.44
37066;BME280;22981;43.080;25.550;2024-03-02T05:28:36;99123.41;;;7.66;77.47
37066;BME280;22981;43.080;25.550;2024-03-02T05:31:04;99110.91;;;7.66;77.31
37066;BME280;22981;43.080;25.550;2024-03-02T05:33:31;99149.86;;;7.67;77.36
37066;BME280;22981;43.080;25.550;2024-03-02T05:35:59;99125.88;;;7.67;77.23
37066;BME280;22981;43.080;25.550;2024-03-02T05:38:28;99122.00;;;7.63;77.33
37066;BME280;22981;43.080;25.550;2024-03-02T05:40:55;99149.78;;;7.58;77.50
37066;BME280;22981;43.080;25.550;2024-03-02T05:43:23;99116.16;;;7.57;77.52
37066;BME280;22981;43.080;25.550;2024-03-02T05:45:51;99122.52;;;7.56;77.61
37066;BME280;22981;43.080;25.550;2024-03-02T05:48:18;99138.28;;;7.58;77.66
37066;BME280;22981;43.080;25.550;2024-03-02T05:50:46;99131.44;;;7.59;77.62
37066;BME280;22981;43.080;25.550;2024-03-02T05:53:13;99133.47;;;7.57;77.72
37066;BME280;22981;43.080;25.550;2024-03-02T05:55:42;99135.32;;;7.57;77.74
37066;BME280;22981;43.080;25.550;2024-03-02T05:58:11;99123.25;;;7.54;77.79
37066;BME280;22981;43.080;25.550;2024-03-02T06:00:40;99121.70;;;7.56;77.94
37066;BME280;22981;43.080;25.550;2024-03-02T06:03:08;99129.88;;;7.61;78.05
37066;BME280;22981;43.080;25.550;2024-03-02T06:05:35;99128.84;;;7.68;78.06
37066;BME280;22981;43.080;25.550;2024-03-02T06:08:03;99158.16;;;7.68;78.03
37066;BME280;22981;43.080;25.550;2024-03-02T06:10:31;99137.66;;;7.69;77.96
37066;BME280;22981;43.080;25.550;2024-03-02T06:12:58;99158.97;;;7.69;78.04
37066;BME280;22981;43.080;25.550;2024-03-02T06:15:26;99143.50;;;7.68;78.09
37066;BME280;22981;43.080;25.550;2024-03-02T06:17:54;99147.09;;;7.71;78.11
37066;BME280;22981;43.080;25.550;2024-03-02T06:20:21;99149.83;;;7.74;78.17
37066;BME280;22981;43.080;25.550;2024-03-02T06:22:49;99154.45;;;7.76;78.16
37066;BME280;22981;43.080;25.550;2024-03-02T06:25:16;99120.41;;;7.78;78.10
37066;BME280;22981;43.080;25.550;2024-03-02T06:27:44;99132.51;;;7.81;78.22
37066;BME280;22981;43.080;25.550;2024-03-02T06:30:12;99162.30;;;7.87;78.22
37066;BME280;22981;43.080;25.550;2024-03-02T06:32:40;99133.80;;;7.87;78.19
37066;BME280;22981;43.080;25.550;2024-03-02T06:35:07;99157.89;;;7.90;78.26
37066;BME280;22981;43.080;25.550;2024-03-02T06:37:39;99151.02;;;7.91;78.28
37066;BME280;22981;43.080;25.550;2024-03-02T06:40:07;99136.16;;;7.93;78.39
37066;BME280;22981;43.080;25.550;2024-03-02T06:42:35;99128.34;;;7.98;78.47
37066;BME280;22981;43.080;25.550;2024-03-02T06:45:03;99151.59;;;8.07;78.33
37066;BME280;22981;43.080;25.550;2024-03-02T06:47:31;99140.70;;;8.08;78.35
37066;BME280;22981;43.080;25.550;2024-03-02T06:49:59;99145.39;;;8.13;78.41
37066;BME280;22981;43.080;25.550;2024-03-02T06:52:26;99162.02;;;8.15;78.43
37066;BME280;22981;43.080;25.550;2024-03-02T06:54:54;99167.17;;;8.10;78.56
37066;BME280;22981;43.080;25.550;2024-03-02T06:57:21;99164.99;;;8.09;78.71
37066;BME280;22981;43.080;25.550;2024-03-02T06:59:51;99176.98;;;8.16;78.79
37066;BME280;22981;43.080;25.550;2024-03-02T07:02:20;99172.57;;;8.19;78.86
37066;BME280;22981;43.080;25.550;2024-03-02T07:04:49;99165.14;;;8.27;78.93
37066;BME280;22981;43.080;25.550;2024-03-02T07:07:17;99156.58;;;8.35;78.93
37066;BME280;22981;43.080;25.550;2024-03-02T07:09:45;99162.03;;;8.44;78.89
37066;BME280;22981;43.080;25.550;2024-03-02T07:12:13;99164.47;;;8.45;78.85
37066;BME280;22981;43.080;25.550;2024-03-02T07:14:40;99118.38;;;8.47;78.88
37066;BME280;22981;43.080;25.550;2024-03-02T07:17:26;99111.70;;;8.47;78.93
37066;BME280;22981;43.080;25.550;2024-03-02T07:19:53;99126.48;;;8.50;78.98
37066;BME280;22981;43.080;25.550;2024-03-02T07:22:21;99145.03;;;8.54;78.97
37066;BME280;22981;43.080;25.550;2024-03-02T07:24:49;99140.97;;;8.61;78.97
37066;BME280;22981;43.080;25.550;2024-03-02T07:27:17;99164.28;;;8.63;78.95
37066;BME280;22981;43.080;25.550;2024-03-02T07:29:45;99160.98;;;8.61;78.92
37066;BME280;22981;43.080;25.550;2024-03-02T07:32:12;99139.34;;;8.60;78.98
37066;BME280;22981;43.080;25.550;2024-03-02T07:34:40;99176.28;;;8.63;79.06
37066;BME280;22981;43.080;25.550;2024-03-02T07:37:07;99170.43;;;8.63;79.02
37066;BME280;22981;43.080;25.550;2024-03-02T07:39:35;99151.62;;;8.67;79.06
37066;BME280;22981;43.080;25.550;2024-03-02T07:42:02;99145.41;;;8.73;79.01
37066;BME280;22981;43.080;25.550;2024-03-02T07:44:30;99150.95;;;8.78;78.92
37066;BME280;22981;43.080;25.550;2024-03-02T07:46:57;99147.01;;;8.81;78.92
37066;BME280;22981;43.080;25.550;2024-03-02T07:49:25;99125.23;;;8.84;78.95
37066;BME280;22981;43.080;25.550;2024-03-02T07:51:52;99172.11;;;8.89;78.88
37066;BME280;22981;43.080;25.550;2024-03-02T07:54:20;99174.88;;;8.92;78.75
37066;BME280;22981;43.080;25.550;2024-03-02T07:56:48;99165.08;;;8.95;78.75
37066;BME280;22981;43.080;25.550;2024-03-02T07:59:15;99155.41;;;9.00;78.72
37066;BME280;22981;43.080;25.550;2024-03-02T08:01:43;99164.92;;;9.06;78.67
37066;BME280;22981;43.080;25.550;2024-03-02T08:04:11;99167.69;;;9.08;78.55
37066;BME280;22981;43.080;25.550;2024-03-02T08:06:38;99176.28;;;9.10;78.54
37066;BME280;22981;43.080;25.550;2024-03-02T08:09:06;99176.38;;;9.13;78.42
37066;BME280;22981;43.080;25.550;2024-03-02T08:11:35;99179.34;;;9.14;78.42
37066;BME280;22981;43.080;25.550;2024-03-02T08:14:03;99168.66;;;9.14;78.43
37066;BME280;22981;43.080;25.550;2024-03-02T08:16:32;99155.46;;;9.19;78.36
37066;BME280;22981;43.080;25.550;2024-03-02T08:18:59;99190.80;;;9.21;78.23
37066;BME280;22981;43.080;25.550;2024-03-02T08:21:27;99159.08;;;9.15;78.21
37066;BME280;22981;43.080;25.550;2024-03-02T08:23:57;99208.30;;;9.17;78.36
37066;BME280;22981;43.080;25.550;2024-03-02T08:26:24;99169.99;;;9.14;78.31
37066;BME280;22981;43.080;25.550;2024-03-02T08:28:54;99152.41;;;9.15;78.39
37066;BME280;22981;43.080;25.550;2024-03-02T08:31:21;99176.60;;;9.20;78.33
37066;BME280;22981;43.080;25.550;2024-03-02T08:33:49;99174.31;;;9.24;78.15
37066;BME280;22981;43.080;25.550;2024-03-02T08:36:16;99166.11;;;9.25;77.97
37066;BME280;22981;43.080;25.550;2024-03-02T08:38:44;99173.14;;;9.29;77.93
37066;BME280;22981;43.080;25.550;2024-03-02T08:41:12;99175.86;;;9.38;77.89
37066;BME280;22981;43.080;25.550;2024-03-02T08:43:42;99169.72;;;9.47;77.71
37066;BME280;22981;43.080;25.550;2024-03-02T08:46:09;99159.39;;;9.50;77.53
37066;BME280;22981;43.080;25.550;2024-03-02T08:48:37;99159.86;;;9.57;77.36
37066;BME280;22981;43.080;25.550;2024-03-02T08:51:04;99167.27;;;9.54;77.06
37066;BME280;22981;43.080;25.550;2024-03-02T08:53:34;99159.19;;;9.52;77.16
37066;BME280;22981;43.080;25.550;2024-03-02T08:56:02;99145.39;;;9.55;77.14
37066;BME280;22981;43.080;25.550;2024-03-02T08:58:32;99167.22;;;9.61;77.04
37066;BME280;22981;43.080;25.550;2024-03-02T09:01:00;99158.77;;;9.64;76.79
37066;BME280;22981;43.080;25.550;2024-03-02T09:03:27;99158.77;;;9.64;76.57
37066;BME280;22981;43.080;25.550;2024-03-02T09:05:55;99198.05;;;9.64;76.55
37066;BME280;22981;43.080;25.550;2024-03-02T09:08:22;99220.23;;;9.64;76.56
37066;BME280;22981;43.080;25.550;2024-03-02T09:10:50;99199.88;;;9.63;76.57
37066;BME280;22981;43.080;25.550;2024-03-02T09:13:17;99198.47;;;9.61;76.69
37066;BME280;22981;43.080;25.550;2024-03-02T09:15:45;99215.55;;;9.60;76.67
37066;BME280;22981;43.080;25.550;2024-03-02T09:18:12;99201.87;;;9.59;76.65
37066;BME280;22981;43.080;25.550;2024-03-02T09:20:40;99191.80;;;9.61;76.52
37066;BME280;22981;43.080;25.550;2024-03-02T09:23:08;99187.21;;;9.68;76.52
37066;BME280;22981;43.080;25.550;2024-03-02T09:25:36;99184.45;;;9.74;76.39
37066;BME280;22981;43.080;25.550;2024-03-02T09:28:03;99201.17;;;9.79;76.19
37066;BME280;22981;43.080;25.550;2024-03-02T09:30:31;99179.05;;;9.81;76.10
37066;BME280;22981;43.080;25.550;2024-03-02T09:32:59;99163.59;;;9.83;76.05
37066;BME280;22981;43.080;25.550;2024-03-02T09:35:26;99183.51;;;9.87;75.97
37066;BME280;22981;43.080;25.550;2024-03-02T09:37:54;99196.35;;;9.88;75.84
37066;BME280;22981;43.080;25.550;2024-03-02T09:40:22;99172.43;;;9.93;75.84
37066;BME280;22981;43.080;25.550;2024-03-02T09:42:51;99161.06;;;9.97;75.72
37066;BME280;22981;43.080;25.550;2024-03-02T09:45:26;99199.27;;;10.04;75.58
37066;BME280;22981;43.080;25.550;2024-03-02T09:47:54;99190.42;;;10.04;75.29
37066;BME280;22981;43.080;25.550;2024-03-02T09:50:22;99185.36;;;10.05;75.19
37066;BME280;22981;43.080;25.550;2024-03-02T09:52:49;99200.83;;;10.03;75.10
37066;BME280;22981;43.080;25.550;2024-03-02T09:55:18;99178.30;;;10.01;75.18
37066;BME280;22981;43.080;25.550;2024-03-02T09:57:46;99168.27;;;10.06;75.24
37066;BME280;22981;43.080;25.550;2024-03-02T10:00:15;99155.22;;;10.07;75.19
37066;BME280;22981;43.080;25.550;2024-03-02T10:02:43;99127.80;;;10.12;75.04
37066;BME280;22981;43.080;25.550;2024-03-02T10:05:12;99152.73;;;10.15;74.89
37066;BME280;22981;43.080;25.550;2024-03-02T10:07:40;99185.36;;;10.14;74.82
37066;BME280;22981;43.080;25.550;2024-03-02T10:10:14;99187.22;;;10.14;74.62
37066;BME280;22981;43.080;25.550;2024-03-02T10:12:42;99150.97;;;10.09;74.48
37066;BME280;22981;43.080;25.550;2024-03-02T10:15:10;99137.45;;;10.13;74.67
37066;BME280;22981;43.080;25.550;2024-03-02T10:17:37;99144.80;;;10.17;74.56
37066;BME280;22981;43.080;25.550;2024-03-02T10:20:24;99155.78;;;10.18;74.57
37066;BME280;22981;43.080;25.550;2024-03-02T10:22:52;99155.63;;;10.22;74.51
37066;BME280;22981;43.080;25.550;2024-03-02T10:25:33;99168.31;;;10.24;74.42
37066;BME280;22981;43.080;25.550;2024-03-02T10:28:01;99200.91;;;10.24;74.26
37066;BME280;22981;43.080;25.550;2024-03-02T10:30:30;99202.75;;;10.14;74.08
37066;BME280;22981;43.080;25.550;2024-03-02T10:32:58;99203.13;;;10.09;74.26
37066;BME280;22981;43.080;25.550;2024-03-02T10:35:26;99199.55;;;10.06;74.29
37066;BME280;22981;43.080;25.550;2024-03-02T10:37:55;99184.78;;;10.03;74.55
37066;BME280;22981;43.080;25.550;2024-03-02T10:40:23;99184.69;;;10.10;74.69
37066;BME280;22981;43.080;25.550;2024-03-02T10:42:51;99177.70;;;10.18;74.55
37066;BME280;22981;43.080;25.550;2024-03-02T10:45:20;99173.14;;;10.25;74.33
37066;BME280;22981;43.080;25.550;2024-03-02T10:47:50;99171.78;;;10.34;74.15
37066;BME280;22981;43.080;25.550;2024-03-02T10:50:18;99158.55;;;10.39;73.89
37066;BME280;22981;43.080;25.550;2024-03-02T10:52:45;99157.13;;;10.46;73.82
37066;BME280;22981;43.080;25.550;2024-03-02T10:55:13;99170.88;;;10.49;73.61
37066;BME280;22981;43.080;25.550;2024-03-02T10:57:55;99164.48;;;10.50;73.43
37066;BME280;22981;43.080;25.550;2024-03-02T11:00:25;99152.15;;;10.49;73.34
37066;BME280;22981;43.080;25.550;2024-03-02T11:02:59;99135.33;;;10.51;73.37
37066;BME280;22981;43.080;25.550;2024-03-02T11:05:34;99137.69;;;10.60;73.37
37066;BME280;22981;43.080;25.550;2024-03-02T11:08:06;99145.97;;;10.70;73.28
37066;BME280;22981;43.080;25.550;2024-03-02T11:13:33;99166.34;;;10.80;72.86
37066;BME280;22981;43.080;25.550;2024-03-02T11:16:08;99159.11;;;10.81;72.54
37066;BME280;22981;43.080;25.550;2024-03-02T11:18:35;99175.84;;;10.85;72.45
37066;BME280;22981;43.080;25.550;2024-03-02T11:21:04;99170.89;;;10.91;72.30
37066;BME280;22981;43.080;25.550;2024-03-02T11:23:34;99172.59;;;10.95;72.01
37066;BME280;22981;43.080;25.550;2024-03-02T11:26:21;99181.68;;;10.94;71.93
37066;BME280;22981;43.080;25.550;2024-03-02T11:28:50;99173.23;;;10.88;71.93
37066;BME280;22981;43.080;25.550;2024-03-02T11:31:18;99159.84;;;10.88;71.99
37066;BME280;22981;43.080;25.550;2024-03-02T11:33:46;99151.41;;;10.93;71.96
37066;BME280;22981;43.080;25.550;2024-03-02T11:36:13;99150.02;;;11.02;71.83
37066;BME280;22981;43.080;25.550;2024-03-02T11:38:44;99146.73;;;11.10;71.59
37066;BME280;22981;43.080;25.550;2024-03-02T11:41:12;99136.34;;;11.13;71.41
37066;BME280;22981;43.080;25.550;2024-03-02T11:43:40;99131.58;;;11.15;71.34
37066;BME280;22981;43.080;25.550;2024-03-02T11:46:10;99145.34;;;11.19;71.31
37066;BME280;22981;43.080;25.550;2024-03-02T11:48:40;99160.12;;;11.21;71.25
37066;BME280;22981;43.080;25.550;2024-03-02T11:51:07;99160.12;;;11.21;71.24
37066;BME280;22981;43.080;25.550;2024-03-02T11:53:35;99147.04;;;11.22;71.19
37066;BME280;22981;43.080;25.550;2024-03-02T11:56:06;99150.45;;;11.20;70.96
37066;BME280;22981;43.080;25.550;2024-03-02T11:58:36;99153.42;;;11.21;70.99
37066;BME280;22981;43.080;25.550;2024-03-02T12:01:04;99148.37;;;11.22;70.71
37066;BME280;22981;43.080;25.550;2024-03-02T12:03:33;99145.17;;;11.23;70.67
37066;BME280;22981;43.080;25.550;2024-03-02T12:06:01;99137.78;;;11.27;70.69
37066;BME280;22981;43.080;25.550;2024-03-02T12:08:29;99144.02;;;11.31;70.66
37066;BME280;22981;43.080;25.550;2024-03-02T12:11:00;99136.83;;;11.34;70.63
37066;BME280;22981;43.080;25.550;2024-03-02T12:13:28;99132.92;;;11.39;70.51
37066;BME280;22981;43.080;25.550;2024-03-02T12:15:55;99143.02;;;11.46;70.46
37066;BME280;22981;43.080;25.550;2024-03-02T12:18:23;99140.86;;;11.45;70.29
37066;BME280;22981;43.080;25.550;2024-03-02T12:20:52;99147.81;;;11.44;70.27
37066;BME280;22981;43.080;25.550;2024-03-02T12:23:21;99143.15;;;11.39;70.19
37066;BME280;22981;43.080;25.550;2024-03-02T12:25:49;99150.84;;;11.36;70.22
37066;BME280;22981;43.080;25.550;2024-03-02T12:28:17;99154.04;;;11.35;70.19
37066;BME280;22981;43.080;25.550;2024-03-02T12:30:46;99156.89;;;11.31;70.27
37066;BME280;22981;43.080;25.550;2024-03-02T12:33:14;99163.45;;;11.26;70.34
37066;BME280;22981;43.080;25.550;2024-03-02T12:35:42;99160.36;;;11.20;70.42
37066;BME280;22981;43.080;25.550;2024-03-02T12:38:10;99159.43;;;11.14;70.49
37066;BME280;22981;43.080;25.550;2024-03-02T12:40:37;99158.02;;;11.12;70.60
37066;BME280;22981;43.080;25.550;2024-03-02T12:43:06;99159.52;;;11.08;70.57
37066;BME280;22981;43.080;25.550;2024-03-02T12:45:34;99163.98;;;11.04;70.65
37066;BME280;22981;43.080;25.550;2024-03-02T12:48:03;99163.02;;;11.08;70.71
37066;BME280;22981;43.080;25.550;2024-03-02T12:50:32;99157.77;;;11.13;70.73
37066;BME280;22981;43.080;25.550;2024-03-02T12:53:00;99155.57;;;11.22;70.58
37066;BME280;22981;43.080;25.550;2024-03-02T12:55:28;99156.94;;;11.34;70.39
37066;BME280;22981;43.080;25.550;2024-03-02T12:57:57;99158.17;;;11.40;70.21
37066;BME280;22981;43.080;25.550;2024-03-02T13:00:25;99146.34;;;11.50;70.03
37066;BME280;22981;43.080;25.550;2024-03-02T13:02:53;99151.59;;;11.57;69.82
37066;BME280;22981;43.080;25.550;2024-03-02T13:05:22;99162.19;;;11.64;69.64
37066;BME280;22981;43.080;25.550;2024-03-02T13:07:51;99156.65;;;11.68;69.45